createdAt,value
2018-12-08T07:25:27.039Z,8.20
2018-12-08T07:27:59.182Z,8.20
2018-12-08T07:30:32.309Z,8.20
2018-12-08T07:33:08.881Z,8.30
2018-12-08T07:35:49.330Z,8.20
2018-12-08T07:38:18.114Z,8.40
2018-12-08T07:40:47.469Z,8.40
2018-12-08T07:43:19.911Z,8.50
2018-12-08T07:45:49.830Z,8.50
2018-12-08T07:48:19.057Z,8.60
2018-12-08T07:50:49.683Z,8.70
2018-12-08T07:53:18.583Z,8.70
2018-12-08T07:55:47.450Z,8.80
2018-12-08T07:58:33.874Z,8.80
2018-12-08T08:04:47.185Z,8.70
2018-12-08T08:07:17.689Z,8.90
2018-12-08T08:09:46.557Z,8.90
2018-12-08T08:12:19.162Z,9.00
2018-12-08T08:14:47.900Z,9.00
2018-12-08T08:17:20.562Z,9.00
2018-12-08T08:19:52.813Z,9.10
2018-12-08T08:34:47.410Z,9.10
2018-12-08T08:37:16.023Z,9.10
2018-12-08T08:39:45.715Z,9.20
2018-12-08T09:09:35.928Z,9.80
2018-12-08T09:18:28.075Z,9.60
2018-12-08T09:34:04.754Z,9.70
2018-12-08T10:07:06.929Z,9.10
2018-12-08T10:09:35.881Z,9.10
2018-12-08T10:12:30.044Z,9.20
2018-12-08T11:05:55.566Z,9.50
2018-12-08T11:08:24.946Z,9.50
2018-12-08T11:13:46.164Z,9.60
2018-12-08T11:16:14.903Z,9.60
2018-12-08T11:18:48.307Z,9.70
2018-12-08T11:21:17.233Z,9.80
2018-12-08T11:23:50.723Z,9.60
2018-12-08T11:26:21.898Z,9.80
2018-12-08T11:28:50.570Z,9.70
2018-12-08T11:34:11.610Z,10.10
2018-12-08T11:36:40.300Z,10.40
2018-12-08T11:42:29.678Z,10.50
2018-12-08T11:44:58.582Z,10.60
2018-12-08T11:47:28.159Z,10.50
2018-12-08T11:50:01.633Z,10.50
2018-12-08T11:52:33.008Z,10.60
2018-12-08T11:55:03.079Z,10.60
2018-12-08T11:57:31.909Z,10.80
2018-12-08T12:00:12.657Z,10.60
2018-12-08T12:02:41.336Z,10.60
2018-12-08T12:05:13.319Z,10.50
2018-12-08T12:07:41.963Z,10.30
2018-12-08T12:10:10.708Z,10.30
2018-12-08T12:12:39.543Z,10.10
2018-12-08T12:15:08.461Z,10.30
2018-12-08T12:17:37.112Z,10.20
2018-12-08T12:20:06.585Z,9.90
2018-12-08T12:22:36.236Z,9.60
2018-12-08T12:25:08.386Z,9.90
2018-12-08T12:27:37.148Z,10.20
2018-12-08T12:30:07.316Z,10.20
2018-12-08T12:32:38.544Z,10.00
2018-12-08T12:35:07.385Z,9.90
2018-12-08T12:37:36.766Z,9.90
2018-12-08T12:40:05.831Z,9.90
2018-12-08T12:42:34.480Z,9.60
2018-12-08T12:45:03.060Z,9.70
2018-12-08T12:47:32.589Z,9.90
2018-12-08T12:51:51.963Z,10.00
2018-12-08T12:54:40.822Z,10.30
2018-12-08T12:57:09.539Z,10.40
2018-12-08T12:59:56.567Z,10.20
2018-12-08T13:08:20.643Z,10.20
2018-12-08T13:10:49.219Z,10.20
2018-12-08T13:13:20.503Z,10.20
2018-12-08T13:15:49.000Z,10.30
2018-12-08T13:18:20.778Z,10.40
2018-12-08T13:20:52.443Z,10.40
2018-12-08T13:23:21.177Z,10.40
2018-12-08T13:25:49.902Z,10.50
2018-12-08T13:28:18.888Z,10.30
2018-12-08T13:30:50.414Z,10.30
2018-12-08T13:33:19.213Z,10.20
2018-12-08T13:35:56.823Z,10.30
2018-12-08T13:38:26.850Z,10.20
2018-12-08T13:40:56.068Z,10.40
2018-12-08T13:43:24.790Z,10.50
2018-12-08T13:45:53.558Z,10.40
2018-12-08T13:48:24.458Z,10.20
2018-12-08T13:56:57.692Z,9.70
2018-12-08T13:59:27.580Z,9.80
2018-12-08T14:01:56.279Z,9.90
2018-12-08T14:04:31.680Z,9.90
2018-12-08T14:16:47.911Z,9.70
2018-12-08T14:19:17.396Z,9.70
2018-12-08T14:21:45.982Z,9.60
2018-12-08T14:24:14.657Z,9.60
2018-12-08T14:26:43.547Z,9.60
2018-12-08T14:29:12.138Z,9.60
2018-12-08T14:31:41.466Z,9.60
2018-12-08T14:34:10.343Z,9.80
2018-12-08T14:36:39.347Z,9.80
2018-12-08T14:39:12.069Z,9.80
2018-12-08T14:41:44.486Z,9.80
2018-12-08T14:44:13.286Z,9.90
2018-12-08T14:46:45.896Z,10.00
2018-12-08T14:49:16.833Z,10.00
2018-12-08T14:54:24.529Z,9.60
2018-12-08T14:56:53.167Z,9.50
2018-12-08T14:59:33.296Z,9.50
2018-12-08T15:02:03.920Z,9.60
2018-12-08T15:07:26.142Z,9.60
2018-12-08T15:09:55.146Z,9.70
2018-12-08T15:12:23.958Z,9.80
2018-12-08T15:14:53.871Z,9.50
2018-12-08T15:17:27.223Z,9.60
2018-12-08T15:20:00.191Z,9.60
2018-12-08T15:22:29.076Z,9.60
2018-12-08T15:24:57.804Z,9.60
2018-12-08T15:27:27.497Z,9.60
2018-12-08T15:34:25.637Z,9.50
2018-12-08T15:37:15.367Z,9.50
2018-12-08T15:39:45.960Z,9.60
2018-12-08T15:42:20.837Z,9.50
2018-12-08T15:44:56.070Z,9.60
2018-12-08T15:47:33.915Z,9.60
2018-12-08T15:50:10.131Z,9.70
2018-12-08T15:52:41.002Z,9.80
2018-12-08T15:55:10.182Z,9.80
2018-12-08T15:57:39.986Z,9.80
2018-12-08T16:00:11.220Z,9.80
2018-12-08T16:02:46.677Z,9.80
2018-12-08T16:09:09.358Z,9.70
2018-12-08T16:11:40.084Z,9.70
2018-12-08T16:14:08.840Z,9.80
2018-12-08T16:16:38.430Z,9.70
2018-12-08T16:19:07.163Z,9.70
2018-12-08T16:21:42.299Z,9.80
2018-12-08T16:24:13.931Z,9.90
2018-12-08T16:26:42.633Z,10.00
2018-12-08T16:29:13.241Z,10.00
2018-12-08T16:31:43.100Z,10.10
2018-12-08T16:34:13.394Z,10.00
2018-12-08T16:36:56.421Z,9.90
2018-12-08T16:39:28.281Z,9.80
2018-12-08T16:41:57.257Z,9.70
2018-12-08T16:44:26.726Z,9.80
2018-12-08T16:46:55.781Z,9.70
2018-12-08T16:49:29.634Z,9.70
2018-12-08T16:52:11.022Z,9.70
2018-12-08T16:54:39.853Z,9.80
2018-12-08T16:57:08.533Z,9.80
2018-12-08T16:59:37.266Z,9.90
2018-12-08T17:07:55.278Z,10.00
2018-12-08T17:13:17.590Z,10.00
2018-12-08T17:15:46.695Z,10.10
2018-12-08T17:18:15.543Z,10.10
2018-12-08T17:20:46.186Z,10.10
2018-12-08T17:23:20.245Z,10.10
2018-12-08T17:25:50.604Z,10.20
2018-12-08T17:28:20.580Z,10.10
2018-12-08T17:30:49.324Z,10.10
2018-12-08T17:33:23.266Z,10.10
2018-12-08T17:35:52.133Z,10.10
2018-12-08T17:38:21.219Z,10.20
2018-12-08T17:43:28.161Z,10.30
2018-12-08T17:46:00.208Z,10.30
2018-12-08T17:48:29.356Z,10.10
2018-12-08T17:51:00.686Z,10.00
2018-12-08T17:53:31.171Z,10.10
2018-12-08T17:55:59.912Z,10.10
2018-12-08T17:58:28.668Z,10.00
2018-12-08T18:00:57.510Z,9.90
2018-12-08T18:03:28.070Z,9.70
2018-12-08T18:05:57.717Z,9.60
2018-12-08T18:08:26.503Z,9.60
2018-12-08T18:14:12.962Z,9.60
2018-12-08T18:16:42.635Z,9.60
2018-12-08T18:19:13.479Z,9.70
2018-12-08T18:25:00.331Z,9.60
2018-12-08T18:45:36.667Z,9.60
2018-12-08T18:51:07.188Z,9.70
2018-12-08T18:53:37.665Z,9.80
2018-12-08T18:56:34.149Z,9.80
2018-12-08T18:59:52.465Z,9.80
2018-12-08T19:02:21.755Z,9.80
2018-12-08T19:04:53.645Z,9.80
2018-12-08T19:07:38.556Z,9.90
2018-12-08T19:10:08.674Z,9.90
2018-12-08T19:12:38.520Z,10.00
